| time (UTC) | temp F | wind direction | speed MPH | gust MPH | rain 1hr in | rain 24hr in | rain mn in | humidity % | barometer mb |
| 20260502220012 | 59 | 242 | 0.0 | 1.0 | 0.00 | 0.00 | 0.00 | 36 | 1010.8 |
| 20260502215011 | 59 | 263 | 2.0 | 1.0 | 0.00 | 0.00 | 0.00 | 35 | 1011.0 |
| 20260502214511 | 60 | 230 | 11.0 | 1.0 | 0.00 | 0.00 | 0.00 | 35 | 1011.1 |
| 20260502214011 | 60 | 309 | 3.0 | 1.0 | 0.00 | 0.00 | 0.00 | 36 | 1011.0 |
| 20260502213511 | 60 | 238 | 3.0 | 1.0 | 0.00 | 0.00 | 0.00 | 35 | 1011.1 |
| 20260502213011 | 59 | 160 | 2.0 | 1.0 | 0.00 | 0.00 | 0.00 | 36 | 1011.2 |
| 20260502212511 | 59 | 221 | 4.0 | 1.0 | 0.00 | 0.00 | 0.00 | 36 | 1011.2 |
| 20260502212011 | 59 | 248 | 3.0 | 1.0 | 0.00 | 0.00 | 0.00 | 35 | 1011.3 |
| 20260502211012 | 60 | 243 | 5.0 | 1.0 | 0.00 | 0.00 | 0.00 | 34 | 1011.5 |
| 20260502210511 | 60 | 288 | 4.0 | 1.0 | 0.00 | 0.00 | 0.00 | 35 | 1011.5 |
| 20260502205512 | 59 | 226 | 5.0 | 1.0 | 0.00 | 0.00 | 0.00 | 35 | 1011.6 |
| 20260502204512 | 59 | 262 | 6.0 | 1.0 | 0.00 | 0.00 | 0.00 | 35 | 1011.8 |
| 20260502204011 | 59 | 221 | 9.0 | 1.0 | 0.00 | 0.00 | 0.00 | 34 | 1011.9 |
| 20260502203511 | 59 | 309 | 3.0 | 1.0 | 0.00 | 0.00 | 0.00 | 36 | 1011.9 |
| 20260502203011 | 58 | 319 | 3.0 | 1.0 | 0.00 | 0.00 | 0.00 | 35 | 1012.0 |
| 20260502202512 | 59 | 304 | 6.0 | 1.0 | 0.00 | 0.00 | 0.00 | 34 | 1012.3 |
| 20260502202011 | 58 | 290 | 2.0 | 1.0 | 0.00 | 0.00 | 0.00 | 34 | 1012.3 |
| 20260502201511 | 59 | 326 | 5.0 | 1.0 | 0.00 | 0.00 | 0.00 | 34 | 1012.5 |
| 20260502201011 | 60 | 25 | 0.0 | 1.0 | 0.00 | 0.00 | 0.00 | 33 | 1012.6 |
| 20260502200511 | 59 | 292 | 0.0 | 1.0 | 0.00 | 0.00 | 0.00 | 35 | 1012.8 |
| 20260502200011 | 57 | 334 | 3.0 | 1.0 | 0.00 | 0.00 | 0.00 | 34 | 1012.9 |
| 20260502195511 | 57 | 294 | 3.0 | 1.0 | 0.00 | 0.00 | 0.00 | 36 | 1013.0 |
| 20260502195011 | 57 | 255 | 3.0 | 1.0 | 0.00 | 0.00 | 0.00 | 35 | 1013.1 |
| 20260502194511 | 57 | 263 | 6.0 | 1.0 | 0.00 | 0.00 | 0.00 | 35 | 1013.2 |
| 20260502194011 | 58 | 255 | 8.0 | 2.0 | 0.00 | 0.00 | 0.00 | 34 | 1013.2 |
| 20260502193512 | 58 | 231 | 6.0 | 2.0 | 0.00 | 0.00 | 0.00 | 34 | 1013.3 |
| 20260502193012 | 59 | 241 | 5.0 | 2.0 | 0.00 | 0.00 | 0.00 | 35 | 1013.4 |
| 20260502192511 | 57 | 179 | 4.0 | 1.0 | 0.00 | 0.00 | 0.00 | 34 | 1013.5 |
| 20260502192011 | 58 | 234 | 9.0 | 2.0 | 0.00 | 0.00 | 0.00 | 35 | 1013.6 |
| 20260502191511 | 57 | 182 | 1.0 | 2.0 | 0.00 | 0.00 | 0.00 | 34 | 1013.6 |
| 20260502191011 | 56 | 294 | 5.0 | 1.0 | 0.00 | 0.00 | 0.00 | 34 | 1013.8 |
| 20260502190511 | 58 | 221 | 6.0 | 1.0 | 0.00 | 0.00 | 0.00 | 34 | 1013.8 |
| 20260502185512 | 56 | 290 | 4.0 | 1.0 | 0.00 | 0.00 | 0.00 | 34 | 1014.0 |
| 20260502185011 | 56 | 195 | 5.0 | 1.0 | 0.00 | 0.00 | 0.00 | 35 | 1014.0 |
| 20260502184511 | 57 | 130 | 2.0 | 1.0 | 0.00 | 0.00 | 0.00 | 32 | 1014.0 |
| 20260502184011 | 56 | 160 | 6.0 | 1.0 | 0.00 | 0.00 | 0.00 | 34 | 1014.0 |
| 20260502183512 | 56 | 175 | 4.0 | 1.0 | 0.00 | 0.00 | 0.00 | 34 | 1014.1 |
| 20260502183011 | 56 | 198 | 5.0 | 1.0 | 0.00 | 0.00 | 0.00 | 33 | 1014.2 |
| 20260502182511 | 56 | 149 | 2.0 | 1.0 | 0.00 | 0.00 | 0.00 | 33 | 1014.3 |
| 20260502182011 | 57 | 244 | 7.0 | 1.0 | 0.00 | 0.00 | 0.00 | 34 | 1014.4 |
| 20260502181511 | 56 | 148 | 2.0 | 1.0 | 0.00 | 0.00 | 0.00 | 34 | 1014.3 |
| 20260502181011 | 56 | 215 | 1.0 | 1.0 | 0.00 | 0.00 | 0.00 | 33 | 1014.5 |
| 20260502170510 | 53 | 217 | 0.0 | 1.0 | 0.00 | 0.00 | 0.00 | 35 | 1015.7 |
| 20260502164011 | 52 | 289 | 2.0 | 1.0 | 0.00 | 0.00 | 0.00 | 36 | 1016.4 |
| 20260502163511 | 53 | 317 | 2.0 | 0.0 | 0.00 | 0.00 | 0.00 | 36 | 1016.4 |
| 20260502163011 | 52 | 132 | 2.0 | 1.0 | 0.00 | 0.00 | 0.00 | 37 | 1016.5 |
| 20260502162511 | 51 | 154 | 3.0 | 1.0 | 0.00 | 0.00 | 0.00 | 36 | 1016.6 |
| 20260502162012 | 51 | 141 | 5.0 | 1.0 | 0.00 | 0.00 | 0.00 | 37 | 1016.7 |
| 20260502161011 | 51 | 272 | 0.0 | 1.0 | 0.00 | 0.00 | 0.00 | 38 | 1016.8 |
| 20260502160511 | 51 | 316 | 0.0 | 1.0 | 0.00 | 0.00 | 0.00 | 41 | 1016.8 |
| 20260502152011 | 49 | 276 | 3.0 | 1.0 | 0.00 | 0.00 | 0.00 | 37 | 1017.5 |
| 20260502151511 | 49 | 325 | 2.0 | 1.0 | 0.00 | 0.00 | 0.00 | 38 | 1017.6 |
| 20260502151011 | 49 | 316 | 2.0 | 1.0 | 0.00 | 0.00 | 0.00 | 39 | 1017.7 |
| 20260502150510 | 48 | 319 | 2.0 | 1.0 | 0.00 | 0.00 | 0.00 | 39 | 1017.8 |
| 20260502130511 | 41 | 250 | 0.0 | 1.0 | 0.00 | 0.00 | 0.00 | 58 | 1018.1 |
| 20260502123511 | 39 | 225 | 0.0 | 0.0 | 0.00 | 0.00 | 0.00 | 55 | 1018.1 |
| 20260502123010 | 38 | 219 | 0.0 | 0.0 | 0.00 | 0.00 | 0.00 | 57 | 1018.1 |
| 20260502122011 | 37 | 233 | 0.0 | 0.0 | 0.00 | 0.00 | 0.00 | 59 | 1018.1 |
| 20260502121510 | 37 | 239 | 0.0 | 0.0 | 0.00 | 0.00 | 0.00 | 58 | 1018.1 |
| 20260502120511 | 35 | 231 | 0.0 | 0.0 | 0.00 | 0.00 | 0.00 | 61 | 1018.2 |
| 20260502115511 | 34 | 231 | 0.0 | 0.0 | 0.00 | 0.00 | 0.00 | 62 | 1018.2 |
| 20260502115011 | 34 | 231 | 0.0 | 0.0 | 0.00 | 0.00 | 0.00 | 63 | 1018.2 |
| 20260502114511 | 33 | 205 | 0.0 | 0.0 | 0.00 | 0.00 | 0.00 | 64 | 1018.3 |
| 20260502114010 | 33 | 204 | 0.0 | 0.0 | 0.00 | 0.00 | 0.00 | 65 | 1018.4 |
| 20260502113511 | 33 | 204 | 0.0 | 0.0 | 0.00 | 0.00 | 0.00 | 66 | 1018.4 |
| 20260502113011 | 33 | 204 | 0.0 | 0.0 | 0.00 | 0.00 | 0.00 | 67 | 1018.4 |
| 20260502112511 | 32 | 221 | 0.0 | 0.0 | 0.00 | 0.00 | 0.00 | 68 | 1018.4 |
| 20260502112011 | 31 | 221 | 0.0 | 0.0 | 0.00 | 0.00 | 0.00 | 68 | 1018.4 |
| 20260502111511 | 31 | 221 | 0.0 | 0.0 | 0.00 | 0.00 | 0.00 | 68 | 1018.4 |
| 20260502110511 | 31 | 211 | 0.0 | 0.0 | 0.00 | 0.00 | 0.00 | 69 | 1018.2 |
| 20260502110010 | 31 | 211 | 0.0 | 0.0 | 0.00 | 0.00 | 0.00 | 71 | 1018.2 |
| 20260502105511 | 31 | 211 | 0.0 | 0.0 | 0.00 | 0.00 | 0.00 | 72 | 1018.2 |
| 20260502105010 | 31 | 211 | 0.0 | 0.0 | 0.00 | 0.00 | 0.00 | 71 | 1018.3 |
| 20260502104511 | 31 | 211 | 0.0 | 0.0 | 0.00 | 0.00 | 0.00 | 70 | 1018.3 |
| 20260502104010 | 31 | 211 | 0.0 | 0.0 | 0.00 | 0.00 | 0.00 | 69 | 1018.3 |
| 20260502103511 | 32 | 211 | 0.0 | 0.0 | 0.00 | 0.00 | 0.00 | 69 | 1018.3 |
| 20260502103010 | 32 | 208 | 0.0 | 0.0 | 0.00 | 0.00 | 0.00 | 68 | 1018.2 |
| 20260502102511 | 32 | 209 | 0.0 | 0.0 | 0.00 | 0.00 | 0.00 | 68 | 1018.4 |
| 20260502102011 | 32 | 200 | 0.0 | 0.0 | 0.00 | 0.00 | 0.00 | 67 | 1018.4 |
| 20260502101011 | 31 | 191 | 0.0 | 0.0 | 0.00 | 0.00 | 0.00 | 70 | 1018.4 |
| 20260502100511 | 31 | 190 | 0.0 | 0.0 | 0.00 | 0.00 | 0.00 | 73 | 1018.5 |
| 20260502091511 | 31 | 190 | 0.0 | 0.0 | 0.00 | 0.00 | 0.00 | 80 | 1018.6 |
| 20260502091011 | 29 | 190 | 0.0 | 0.0 | 0.00 | 0.00 | 0.00 | 74 | 1018.5 |
| 20260502090511 | 29 | 191 | 0.0 | 0.0 | 0.00 | 0.00 | 0.00 | 74 | 1018.5 |
| 20260502071511 | 33 | 203 | 0.0 | 0.0 | 0.00 | 0.00 | 0.00 | 70 | 1019.2 |
| 20260502071011 | 33 | 203 | 0.0 | 0.0 | 0.00 | 0.00 | 0.00 | 71 | 1019.1 |
| 20260502070510 | 32 | 155 | 0.0 | 0.0 | 0.00 | 0.00 | 0.00 | 75 | 1019.3 |
| 20260502070012 | 33 | 155 | 0.0 | 0.0 | 0.00 | 0.00 | 0.00 | 72 | 1019.2 |
| 20260502065511 | 33 | 155 | 2.0 | 0.0 | 0.00 | 0.00 | 0.00 | 71 | 1019.3 |
| 20260502065011 | 33 | 148 | 0.0 | 0.0 | 0.00 | 0.00 | 0.00 | 69 | 1019.4 |
| 20260502064511 | 34 | 62 | 0.0 | 0.0 | 0.00 | 0.00 | 0.00 | 68 | 1019.3 |
| 20260502064010 | 35 | 62 | 0.0 | 0.0 | 0.00 | 0.00 | 0.00 | 57 | 1019.4 |
| 20260502063511 | 34 | 62 | 0.0 | 0.0 | 0.00 | 0.00 | 0.00 | 59 | 1019.4 |
| 20260502062510 | 33 | 62 | 0.0 | 0.0 | 0.00 | 0.00 | 0.00 | 69 | 1019.5 |
| 20260502062010 | 34 | 62 | 0.0 | 0.0 | 0.00 | 0.00 | 0.00 | 62 | 1019.4 |
| 20260502061011 | 34 | 62 | 0.0 | 0.0 | 0.00 | 0.00 | 0.00 | 60 | 1019.5 |
| 20260502060011 | 34 | 62 | 0.0 | 0.0 | 0.00 | 0.00 | 0.00 | 59 | 1019.5 |
| 20260502055510 | 34 | 62 | 0.0 | 0.0 | 0.00 | 0.00 | 0.00 | 54 | 1019.6 |
| 20260502055011 | 34 | 62 | 0.0 | 0.0 | 0.00 | 0.00 | 0.00 | 57 | 1019.6 |
| 20260502054511 | 34 | 62 | 0.0 | 0.0 | 0.00 | 0.00 | 0.00 | 58 | 1019.6 |
| 20260502054010 | 34 | 62 | 0.0 | 0.0 | 0.00 | 0.00 | 0.00 | 54 | 1019.6 |
| 20260502053511 | 35 | 62 | 0.0 | 0.0 | 0.00 | 0.00 | 0.00 | 53 | 1019.6 |
| 20260502052510 | 36 | 62 | 0.0 | 0.0 | 0.00 | 0.00 | 0.00 | 51 | 1019.6 |
| 20260502051510 | 35 | 62 | 0.0 | 0.0 | 0.00 | 0.00 | 0.00 | 51 | 1019.6 |
| 20260502051011 | 36 | 62 | 0.0 | 0.0 | 0.00 | 0.00 | 0.00 | 50 | 1019.7 |
| 20260502050511 | 37 | 62 | 0.0 | 0.0 | 0.00 | 0.00 | 0.00 | 48 | 1019.7 |
| 20260502050011 | 38 | 62 | 0.0 | 0.0 | 0.00 | 0.00 | 0.00 | 48 | 1019.7 |
| 20260502045510 | 37 | 62 | 0.0 | 0.0 | 0.00 | 0.00 | 0.00 | 50 | 1019.7 |
| 20260502044010 | 38 | 62 | 0.0 | 0.0 | 0.00 | 0.00 | 0.00 | 48 | 1019.8 |
| 20260502043511 | 37 | 62 | 0.0 | 0.0 | 0.00 | 0.00 | 0.00 | 52 | 1019.8 |
| 20260502043010 | 37 | 62 | 0.0 | 0.0 | 0.00 | 0.00 | 0.00 | 52 | 1019.8 |
| 20260502042510 | 38 | 62 | 0.0 | 0.0 | 0.00 | 0.00 | 0.00 | 50 | 1019.9 |
| 20260502042011 | 39 | 62 | 0.0 | 0.0 | 0.00 | 0.00 | 0.00 | 50 | 1019.9 |
| 20260502041511 | 39 | 62 | 0.0 | 0.0 | 0.00 | 0.00 | 0.00 | 49 | 1019.9 |
| 20260502041010 | 39 | 62 | 0.0 | 0.0 | 0.00 | 0.00 | 0.00 | 51 | 1019.9 |
| 20260502040511 | 37 | 62 | 0.0 | 0.0 | 0.00 | 0.00 | 0.00 | 57 | 1019.9 |
| 20260502040011 | 36 | 62 | 0.0 | 0.0 | 0.00 | 0.00 | 0.00 | 60 | 1019.9 |
| 20260502035510 | 36 | 62 | 0.0 | 0.0 | 0.00 | 0.00 | 0.00 | 57 | 1020.0 |
| 20260502035011 | 37 | 62 | 0.0 | 0.0 | 0.00 | 0.00 | 0.00 | 58 | 1019.9 |
| 20260502034510 | 38 | 62 | 0.0 | 0.0 | 0.00 | 0.00 | 0.00 | 55 | 1020.0 |
| 20260502034010 | 39 | 62 | 0.0 | 0.0 | 0.00 | 0.00 | 0.00 | 50 | 1020.0 |
| 20260502033510 | 39 | 62 | 0.0 | 0.0 | 0.00 | 0.00 | 0.00 | 50 | 1020.0 |
| 20260502033010 | 40 | 62 | 0.0 | 0.0 | 0.00 | 0.00 | 0.00 | 50 | 1020.0 |
| 20260502032511 | 40 | 62 | 0.0 | 0.0 | 0.00 | 0.00 | 0.00 | 51 | 1020.1 |
| 20260502032011 | 40 | 62 | 0.0 | 0.0 | 0.00 | 0.00 | 0.00 | 52 | 1020.0 |
| 20260502031511 | 40 | 62 | 0.0 | 0.0 | 0.00 | 0.00 | 0.00 | 52 | 1020.0 |
| 20260502031011 | 41 | 62 | 0.0 | 0.0 | 0.00 | 0.00 | 0.00 | 50 | 1020.0 |
| 20260502030510 | 41 | 62 | 0.0 | 0.0 | 0.00 | 0.00 | 0.00 | 51 | 1020.0 |
| 20260502030011 | 39 | 62 | 0.0 | 0.0 | 0.00 | 0.00 | 0.00 | 58 | 1020.0 |
| 20260502025510 | 38 | 62 | 0.0 | 0.0 | 0.00 | 0.00 | 0.00 | 63 | 1020.0 |
| 20260502025011 | 38 | 62 | 0.0 | 0.0 | 0.00 | 0.00 | 0.00 | 63 | 1020.0 |
| 20260502024511 | 40 | 315 | 0.0 | 0.0 | 0.00 | 0.00 | 0.00 | 60 | 1020.1 |
| 20260502024010 | 40 | 315 | 0.0 | 0.0 | 0.00 | 0.00 | 0.00 | 53 | 1020.0 |
| 20260502023511 | 40 | 315 | 0.0 | 0.0 | 0.00 | 0.00 | 0.00 | 63 | 1020.0 |
| 20260502023010 | 40 | 315 | 0.0 | 0.0 | 0.00 | 0.00 | 0.00 | 53 | 1020.1 |
| 20260502022510 | 41 | 315 | 0.0 | 0.0 | 0.00 | 0.00 | 0.00 | 49 | 1019.9 |
| 20260502022011 | 41 | 315 | 0.0 | 0.0 | 0.00 | 0.00 | 0.00 | 47 | 1020.0 |
| 20260502021511 | 43 | 356 | 0.0 | 0.0 | 0.00 | 0.00 | 0.00 | 45 | 1020.0 |
| 20260502020510 | 43 | 19 | 0.0 | 0.0 | 0.00 | 0.00 | 0.00 | 43 | 1019.6 |
| 20260502020011 | 43 | 19 | 0.0 | 0.0 | 0.00 | 0.00 | 0.00 | 43 | 1019.7 |
| 20260502015511 | 43 | 19 | 0.0 | 0.0 | 0.00 | 0.00 | 0.00 | 44 | 1019.7 |
| 20260502014511 | 43 | 20 | 0.0 | 0.0 | 0.00 | 0.00 | 0.00 | 43 | 1019.7 |
| 20260502014011 | 44 | 20 | 0.0 | 0.0 | 0.00 | 0.00 | 0.00 | 42 | 1019.5 |
| 20260502013511 | 44 | 20 | 0.0 | 0.0 | 0.00 | 0.00 | 0.00 | 41 | 1019.5 |
| 20260502013011 | 44 | 20 | 0.0 | 0.0 | 0.00 | 0.00 | 0.00 | 41 | 1019.4 |
| 20260502012511 | 45 | 19 | 0.0 | 0.0 | 0.00 | 0.00 | 0.00 | 40 | 1019.4 |
| 20260502012012 | 45 | 26 | 0.0 | 0.0 | 0.00 | 0.00 | 0.00 | 41 | 1019.4 |
| 20260502011512 | 46 | 339 | 0.0 | 0.0 | 0.00 | 0.00 | 0.00 | 40 | 1019.4 |
| 20260502011011 | 46 | 339 | 0.0 | 0.0 | 0.00 | 0.00 | 0.00 | 39 | 1019.3 |
| 20260502010512 | 47 | 339 | 0.0 | 0.0 | 0.00 | 0.00 | 0.00 | 38 | 1019.3 |
| 20260502010012 | 47 | 339 | 0.0 | 0.0 | 0.00 | 0.00 | 0.00 | 37 | 1019.4 |
| 20260502005512 | 47 | 339 | 0.0 | 0.0 | 0.00 | 0.00 | 0.00 | 37 | 1019.4 |
| 20260502005012 | 47 | 8 | 1.0 | 0.0 | 0.00 | 0.00 | 0.00 | 38 | 1019.4 |
| 20260502004012 | 48 | 347 | 0.0 | 0.0 | 0.00 | 0.00 | 0.00 | 39 | 1019.3 |
| 20260502003512 | 48 | 354 | 0.0 | 0.0 | 0.00 | 0.00 | 0.00 | 38 | 1019.4 |
| 20260502003012 | 48 | 327 | 0.0 | 0.0 | 0.00 | 0.00 | 0.00 | 39 | 1019.3 |
| 20260502002512 | 48 | 66 | 0.0 | 0.0 | 0.00 | 0.00 | 0.00 | 38 | 1019.4 |
| 20260502002012 | 48 | 301 | 1.0 | 0.0 | 0.00 | 0.00 | 0.00 | 38 | 1019.3 |
| 20260502001512 | 48 | 62 | 0.0 | 0.0 | 0.00 | 0.00 | 0.00 | 36 | 1019.3 |
| 20260502001012 | 49 | 25 | 0.0 | 0.0 | 0.00 | 0.00 | 0.00 | 36 | 1019.2 |
| 20260502000512 | 49 | 316 | 0.0 | 1.0 | 0.00 | 0.00 | 0.00 | 38 | 1019.3 |
| 20260502000011 | 48 | 18 | 1.0 | 1.0 | 0.00 | 0.00 | 0.00 | 37 | 1019.3 |
| 20260501235513 | 48 | 331 | 2.0 | 1.0 | 0.00 | 0.00 | 0.00 | 37 | 1019.3 |
| 20260501235012 | 49 | 30 | 2.0 | 1.0 | 0.00 | 0.00 | 0.00 | 35 | 1019.3 |
| 20260501234512 | 49 | 8 | 4.0 | 1.0 | 0.00 | 0.00 | 0.00 | 36 | 1019.3 |
| 20260501234012 | 49 | 44 | 1.0 | 1.0 | 0.00 | 0.00 | 0.00 | 35 | 1019.3 |
| 20260501233512 | 49 | 4 | 2.0 | 1.0 | 0.00 | 0.00 | 0.00 | 35 | 1019.4 |
| 20260501232512 | 49 | 342 | 4.0 | 1.0 | 0.00 | 0.00 | 0.00 | 36 | 1019.4 |
| 20260501232012 | 48 | 347 | 1.0 | 1.0 | 0.00 | 0.00 | 0.00 | 37 | 1019.4 |
| 20260501231513 | 48 | 41 | 3.0 | 1.0 | 0.00 | 0.00 | 0.00 | 36 | 1019.3 |
| 20260501231012 | 48 | 350 | 2.0 | 1.0 | 0.00 | 0.00 | 0.00 | 41 | 1019.5 |
| 20260501230511 | 47 | 17 | 0.0 | 1.0 | 0.00 | 0.00 | 0.00 | 37 | 1019.5 |
| 20260501230012 | 49 | 32 | 5.0 | 1.0 | 0.00 | 0.00 | 0.00 | 38 | 1019.4 |
| 20260501225512 | 48 | 45 | 3.0 | 1.0 | 0.00 | 0.00 | 0.00 | 37 | 1019.4 |
| 20260501225012 | 49 | 7 | 4.0 | 1.0 | 0.00 | 0.00 | 0.00 | 36 | 1019.4 |
| 20260501224512 | 51 | 1 | 1.0 | 1.0 | 0.00 | 0.00 | 0.00 | 36 | 1019.4 |
| 20260501224012 | 51 | 50 | 0.0 | 1.0 | 0.00 | 0.00 | 0.00 | 37 | 1019.4 |
| 20260501223512 | 50 | 353 | 4.0 | 1.0 | 0.00 | 0.00 | 0.00 | 36 | 1019.5 |
| 20260501222512 | 50 | 344 | 3.0 | 1.0 | 0.00 | 0.00 | 0.00 | 36 | 1019.4 |
| 20260501222012 | 50 | 341 | 1.0 | 1.0 | 0.00 | 0.00 | 0.00 | 36 | 1019.5 |
| 20260501221512 | 48 | 48 | 3.0 | 1.0 | 0.00 | 0.00 | 0.00 | 36 | 1019.5 |
| 20260501221012 | 47 | 333 | 3.0 | 1.0 | 0.00 | 0.00 | 0.00 | 37 | 1019.5 |
| 20260501220511 | 48 | 345 | 2.0 | 1.0 | 0.00 | 0.00 | 0.00 | 37 | 1019.5 |